sensor_id;sensor_type;location;lat;lon;timestamp;temperature;humidity
40253;DHT22;25972;51.854;4.534;2024-01-30T00:01:56;8.50;99.90
40253;DHT22;25972;51.854;4.534;2024-01-30T00:04:21;8.50;99.90
40253;DHT22;25972;51.854;4.534;2024-01-30T00:06:47;8.60;99.90
40253;DHT22;25972;51.854;4.534;2024-01-30T00:09:13;8.60;99.90
40253;DHT22;25972;51.854;4.534;2024-01-30T00:11:39;8.60;99.90
40253;DHT22;25972;51.854;4.534;2024-01-30T00:14:05;8.60;99.90
40253;DHT22;25972;51.854;4.534;2024-01-30T00:16:31;8.60;99.90
40253;DHT22;25972;51.854;4.534;2024-01-30T00:18:56;8.60;99.90
40253;DHT22;25972;51.854;4.534;2024-01-30T00:21:22;8.60;99.90
40253;DHT22;25972;51.854;4.534;2024-01-30T00:23:48;8.60;99.90
40253;DHT22;25972;51.854;4.534;2024-01-30T00:26:14;8.60;99.90
40253;DHT22;25972;51.854;4.534;2024-01-30T00:28:43;8.60;99.90
40253;DHT22;25972;51.854;4.534;2024-01-30T00:31:09;8.70;99.90
40253;DHT22;25972;51.854;4.534;2024-01-30T00:33:41;8.70;99.90
40253;DHT22;25972;51.854;4.534;2024-01-30T00:36:08;8.60;99.90
40253;DHT22;25972;51.854;4.534;2024-01-30T00:38:34;8.70;99.90
40253;DHT22;25972;51.854;4.534;2024-01-30T00:41:00;8.60;99.90
40253;DHT22;25972;51.854;4.534;2024-01-30T00:43:25;8.70;99.90
40253;DHT22;25972;51.854;4.534;2024-01-30T00:45:51;8.70;99.90
40253;DHT22;25972;51.854;4.534;2024-01-30T00:48:20;8.70;99.90
40253;DHT22;25972;51.854;4.534;2024-01-30T00:50:46;8.70;99.90
40253;DHT22;25972;51.854;4.534;2024-01-30T00:53:11;8.70;99.90
40253;DHT22;25972;51.854;4.534;2024-01-30T00:55:37;8.80;99.90
40253;DHT22;25972;51.854;4.534;2024-01-30T00:58:03;8.70;99.90
40253;DHT22;25972;51.854;4.534;2024-01-30T01:00:29;8.70;99.90
40253;DHT22;25972;51.854;4.534;2024-01-30T01:02:55;8.70;99.90
40253;DHT22;25972;51.854;4.534;2024-01-30T01:05:21;8.70;99.90
40253;DHT22;25972;51.854;4.534;2024-01-30T01:07:47;8.70;99.90
40253;DHT22;25972;51.854;4.534;2024-01-30T01:10:16;8.70;99.90
40253;DHT22;25972;51.854;4.534;2024-01-30T01:12:42;8.60;99.90
40253;DHT22;25972;51.854;4.534;2024-01-30T01:15:08;8.60;99.90
40253;DHT22;25972;51.854;4.534;2024-01-30T01:17:38;8.70;99.90
40253;DHT22;25972;51.854;4.534;2024-01-30T01:20:05;8.60;99.90
40253;DHT22;25972;51.854;4.534;2024-01-30T01:22:32;8.70;99.90
40253;DHT22;25972;51.854;4.534;2024-01-30T01:24:58;8.60;99.90
40253;DHT22;25972;51.854;4.534;2024-01-30T01:27:24;8.60;99.90
40253;DHT22;25972;51.854;4.534;2024-01-30T01:29:50;8.60;99.90
40253;DHT22;25972;51.854;4.534;2024-01-30T01:32:16;8.60;99.90
40253;DHT22;25972;51.854;4.534;2024-01-30T01:34:42;8.60;99.90
40253;DHT22;25972;51.854;4.534;2024-01-30T01:37:08;8.60;99.90
40253;DHT22;25972;51.854;4.534;2024-01-30T01:39:33;8.70;99.90
40253;DHT22;25972;51.854;4.534;2024-01-30T01:41:59;8.60;99.90
40253;DHT22;25972;51.854;4.534;2024-01-30T01:44:25;8.60;99.90
40253;DHT22;25972;51.854;4.534;2024-01-30T01:46:51;8.70;99.90
40253;DHT22;25972;51.854;4.534;2024-01-30T01:49:18;8.70;99.90
40253;DHT22;25972;51.854;4.534;2024-01-30T01:51:45;8.70;99.90
40253;DHT22;25972;51.854;4.534;2024-01-30T01:54:13;8.70;99.90
40253;DHT22;25972;51.854;4.534;2024-01-30T01:56:39;8.70;99.90
40253;DHT22;25972;51.854;4.534;2024-01-30T01:59:07;8.80;99.90
40253;DHT22;25972;51.854;4.534;2024-01-30T02:01:34;8.80;99.90
40253;DHT22;25972;51.854;4.534;2024-01-30T02:04:00;8.80;99.90
40253;DHT22;25972;51.854;4.534;2024-01-30T02:06:27;8.80;99.90
40253;DHT22;25972;51.854;4.534;2024-01-30T02:08:53;8.80;99.90
40253;DHT22;25972;51.854;4.534;2024-01-30T02:11:20;8.90;99.90
40253;DHT22;25972;51.854;4.534;2024-01-30T02:13:46;8.90;99.90
40253;DHT22;25972;51.854;4.534;2024-01-30T02:16:11;8.90;99.90
40253;DHT22;25972;51.854;4.534;2024-01-30T02:18:37;8.90;99.90
40253;DHT22;25972;51.854;4.534;2024-01-30T02:21:07;8.90;99.90
40253;DHT22;25972;51.854;4.534;2024-01-30T02:23:34;9.00;99.90
40253;DHT22;25972;51.854;4.534;2024-01-30T02:26:00;9.00;99.90
40253;DHT22;25972;51.854;4.534;2024-01-30T02:28:25;9.00;99.90
40253;DHT22;25972;51.854;4.534;2024-01-30T02:30:51;8.90;99.90
40253;DHT22;25972;51.854;4.534;2024-01-30T02:33:17;8.90;99.90
40253;DHT22;25972;51.854;4.534;2024-01-30T02:35:43;9.00;99.90
40253;DHT22;25972;51.854;4.534;2024-01-30T02:38:08;9.00;99.90
40253;DHT22;25972;51.854;4.534;2024-01-30T02:40:34;9.00;99.90
40253;DHT22;25972;51.854;4.534;2024-01-30T02:43:01;9.10;99.90
40253;DHT22;25972;51.854;4.534;2024-01-30T02:45:26;9.10;99.90
40253;DHT22;25972;51.854;4.534;2024-01-30T02:47:52;9.10;99.90
40253;DHT22;25972;51.854;4.534;2024-01-30T02:50:18;9.00;99.90
40253;DHT22;25972;51.854;4.534;2024-01-30T02:52:44;9.10;99.90
40253;DHT22;25972;51.854;4.534;2024-01-30T02:55:10;9.10;99.90
40253;DHT22;25972;51.854;4.534;2024-01-30T02:57:36;9.10;99.90
40253;DHT22;25972;51.854;4.534;2024-01-30T03:00:03;9.10;99.90
40253;DHT22;25972;51.854;4.534;2024-01-30T03:02:31;9.10;99.90
40253;DHT22;25972;51.854;4.534;2024-01-30T03:04:57;9.10;99.90
40253;DHT22;25972;51.854;4.534;2024-01-30T03:07:22;9.10;99.90
40253;DHT22;25972;51.854;4.534;2024-01-30T03:09:48;9.10;99.90
40253;DHT22;25972;51.854;4.534;2024-01-30T03:12:14;9.10;99.90
40253;DHT22;25972;51.854;4.534;2024-01-30T03:14:40;9.10;99.90
40253;DHT22;25972;51.854;4.534;2024-01-30T03:17:05;9.20;99.90
40253;DHT22;25972;51.854;4.534;2024-01-30T03:19:31;9.20;99.90
40253;DHT22;25972;51.854;4.534;2024-01-30T03:21:57;9.20;99.90
40253;DHT22;25972;51.854;4.534;2024-01-30T03:24:22;9.20;99.90
40253;DHT22;25972;51.854;4.534;2024-01-30T03:26:48;9.20;99.90
40253;DHT22;25972;51.854;4.534;2024-01-30T03:29:18;9.30;99.90
40253;DHT22;25972;51.854;4.534;2024-01-30T03:31:43;9.20;99.90
40253;DHT22;25972;51.854;4.534;2024-01-30T03:34:09;9.20;99.90
40253;DHT22;25972;51.854;4.534;2024-01-30T03:36:35;9.20;99.90
40253;DHT22;25972;51.854;4.534;2024-01-30T03:39:01;9.20;99.90
40253;DHT22;25972;51.854;4.534;2024-01-30T03:41:27;9.20;99.90
40253;DHT22;25972;51.854;4.534;2024-01-30T03:43:54;9.10;99.90
40253;DHT22;25972;51.854;4.534;2024-01-30T03:46:19;9.20;99.90
40253;DHT22;25972;51.854;4.534;2024-01-30T03:48:45;9.20;99.90
40253;DHT22;25972;51.854;4.534;2024-01-30T03:51:11;9.20;99.90
40253;DHT22;25972;51.854;4.534;2024-01-30T03:53:40;9.10;99.90
40253;DHT22;25972;51.854;4.534;2024-01-30T03:56:07;9.10;99.90
40253;DHT22;25972;51.854;4.534;2024-01-30T03:58:33;9.10;99.90
40253;DHT22;25972;51.854;4.534;2024-01-30T04:00:58;9.10;99.90
40253;DHT22;25972;51.854;4.534;2024-01-30T04:03:24;9.00;99.90
40253;DHT22;25972;51.854;4.534;2024-01-30T04:05:51;9.00;99.90
40253;DHT22;25972;51.854;4.534;2024-01-30T04:08:17;9.10;99.90
40253;DHT22;25972;51.854;4.534;2024-01-30T04:10:43;9.00;99.90
40253;DHT22;25972;51.854;4.534;2024-01-30T04:13:09;9.00;99.90
40253;DHT22;25972;51.854;4.534;2024-01-30T04:15:34;9.00;99.90
40253;DHT22;25972;51.854;4.534;2024-01-30T04:18:00;9.00;99.90
40253;DHT22;25972;51.854;4.534;2024-01-30T04:20:26;9.00;99.90
40253;DHT22;25972;51.854;4.534;2024-01-30T04:22:52;9.00;99.90
40253;DHT22;25972;51.854;4.534;2024-01-30T04:25:17;9.00;99.90
40253;DHT22;25972;51.854;4.534;2024-01-30T04:27:43;9.00;99.90
40253;DHT22;25972;51.854;4.534;2024-01-30T04:30:09;9.00;99.90
40253;DHT22;25972;51.854;4.534;2024-01-30T04:32:35;9.00;99.90
40253;DHT22;25972;51.854;4.534;2024-01-30T04:35:02;9.00;99.90
40253;DHT22;25972;51.854;4.534;2024-01-30T04:37:30;9.00;99.90
40253;DHT22;25972;51.854;4.534;2024-01-30T04:39:56;9.00;99.90
40253;DHT22;25972;51.854;4.534;2024-01-30T04:42:22;9.00;99.90
40253;DHT22;25972;51.854;4.534;2024-01-30T04:44:47;9.00;99.90
40253;DHT22;25972;51.854;4.534;2024-01-30T04:47:13;9.00;99.90
40253;DHT22;25972;51.854;4.534;2024-01-30T04:49:39;9.00;99.90
40253;DHT22;25972;51.854;4.534;2024-01-30T04:52:06;8.90;99.90
40253;DHT22;25972;51.854;4.534;2024-01-30T04:54:31;9.00;99.90
40253;DHT22;25972;51.854;4.534;2024-01-30T04:56:57;9.00;99.90
40253;DHT22;25972;51.854;4.534;2024-01-30T04:59:24;9.00;99.90
40253;DHT22;25972;51.854;4.534;2024-01-30T05:01:49;9.00;99.90
40253;DHT22;25972;51.854;4.534;2024-01-30T05:04:15;9.00;99.90
40253;DHT22;25972;51.854;4.534;2024-01-30T05:06:41;9.00;99.90
40253;DHT22;25972;51.854;4.534;2024-01-30T05:09:06;9.00;99.90
40253;DHT22;25972;51.854;4.534;2024-01-30T05:11:37;9.00;99.90
40253;DHT22;25972;51.854;4.534;2024-01-30T05:14:03;9.00;99.90
40253;DHT22;25972;51.854;4.534;2024-01-30T05:16:29;9.00;99.90
40253;DHT22;25972;51.854;4.534;2024-01-30T05:18:56;9.00;99.90
40253;DHT22;25972;51.854;4.534;2024-01-30T05:21:22;9.00;99.90
40253;DHT22;25972;51.854;4.534;2024-01-30T05:23:47;9.00;99.90
40253;DHT22;25972;51.854;4.534;2024-01-30T05:26:13;9.00;99.90
40253;DHT22;25972;51.854;4.534;2024-01-30T05:28:38;9.00;99.90
40253;DHT22;25972;51.854;4.534;2024-01-30T05:31:04;9.00;99.90
40253;DHT22;25972;51.854;4.534;2024-01-30T05:33:30;9.00;99.90
40253;DHT22;25972;51.854;4.534;2024-01-30T05:35:58;9.00;99.90
40253;DHT22;25972;51.854;4.534;2024-01-30T05:38:23;9.00;99.90
40253;DHT22;25972;51.854;4.534;2024-01-30T05:40:49;9.00;99.90
40253;DHT22;25972;51.854;4.534;2024-01-30T05:43:15;9.00;99.90
40253;DHT22;25972;51.854;4.534;2024-01-30T05:45:41;9.00;99.90
40253;DHT22;25972;51.854;4.534;2024-01-30T05:48:07;9.00;99.90
40253;DHT22;25972;51.854;4.534;2024-01-30T05:50:32;9.00;99.90
40253;DHT22;25972;51.854;4.534;2024-01-30T05:52:58;9.00;99.90
40253;DHT22;25972;51.854;4.534;2024-01-30T05:55:24;9.10;99.90
40253;DHT22;25972;51.854;4.534;2024-01-30T05:57:49;9.10;99.90
40253;DHT22;25972;51.854;4.534;2024-01-30T06:00:16;9.00;99.90
40253;DHT22;25972;51.854;4.534;2024-01-30T06:02:42;9.10;99.90
40253;DHT22;25972;51.854;4.534;2024-01-30T06:05:10;9.20;99.90
40253;DHT22;25972;51.854;4.534;2024-01-30T06:07:35;9.20;99.90
40253;DHT22;25972;51.854;4.534;2024-01-30T06:10:01;9.20;99.90
40253;DHT22;25972;51.854;4.534;2024-01-30T06:12:28;9.20;99.90
40253;DHT22;25972;51.854;4.534;2024-01-30T06:14:54;9.20;99.90
40253;DHT22;25972;51.854;4.534;2024-01-30T06:17:22;9.20;99.90
40253;DHT22;25972;51.854;4.534;2024-01-30T06:19:48;9.20;99.90
40253;DHT22;25972;51.854;4.534;2024-01-30T06:22:14;9.30;99.90
40253;DHT22;25972;51.854;4.534;2024-01-30T06:24:40;9.30;99.90
40253;DHT22;25972;51.854;4.534;2024-01-30T06:27:06;9.30;99.90
40253;DHT22;25972;51.854;4.534;2024-01-30T06:29:31;9.30;99.90
40253;DHT22;25972;51.854;4.534;2024-01-30T06:31:57;9.30;99.90
40253;DHT22;25972;51.854;4.534;2024-01-30T06:34:23;9.40;99.90
40253;DHT22;25972;51.854;4.534;2024-01-30T06:36:48;9.40;99.90
40253;DHT22;25972;51.854;4.534;2024-01-30T06:39:14;9.40;99.90
40253;DHT22;25972;51.854;4.534;2024-01-30T06:41:40;9.30;99.90
40253;DHT22;25972;51.854;4.534;2024-01-30T06:44:07;9.40;99.90
40253;DHT22;25972;51.854;4.534;2024-01-30T06:46:33;9.40;99.90
40253;DHT22;25972;51.854;4.534;2024-01-30T06:48:59;9.40;99.90
40253;DHT22;25972;51.854;4.534;2024-01-30T06:51:25;9.40;99.90
40253;DHT22;25972;51.854;4.534;2024-01-30T06:53:51;9.50;99.90
40253;DHT22;25972;51.854;4.534;2024-01-30T06:56:16;9.40;99.90
40253;DHT22;25972;51.854;4.534;2024-01-30T06:58:47;9.50;99.90
40253;DHT22;25972;51.854;4.534;2024-01-30T07:01:13;9.50;99.90
40253;DHT22;25972;51.854;4.534;2024-01-30T07:03:40;9.50;99.90
40253;DHT22;25972;51.854;4.534;2024-01-30T07:06:06;9.50;99.90
40253;DHT22;25972;51.854;4.534;2024-01-30T07:08:32;9.50;99.90
40253;DHT22;25972;51.854;4.534;2024-01-30T07:10:59;9.50;99.90
40253;DHT22;25972;51.854;4.534;2024-01-30T07:13:25;9.70;99.90
40253;DHT22;25972;51.854;4.534;2024-01-30T07:15:50;9.70;99.90
40253;DHT22;25972;51.854;4.534;2024-01-30T07:18:16;9.70;99.90
40253;DHT22;25972;51.854;4.534;2024-01-30T07:20:42;9.80;99.90
40253;DHT22;25972;51.854;4.534;2024-01-30T07:23:15;9.80;99.90
40253;DHT22;25972;51.854;4.534;2024-01-30T07:25:46;9.80;99.90
40253;DHT22;25972;51.854;4.534;2024-01-30T07:28:15;9.90;99.90
40253;DHT22;25972;51.854;4.534;2024-01-30T07:30:44;9.90;99.90
40253;DHT22;25972;51.854;4.534;2024-01-30T07:33:10;9.90;99.90
40253;DHT22;25972;51.854;4.534;2024-01-30T07:35:36;10.00;99.90
40253;DHT22;25972;51.854;4.534;2024-01-30T07:38:02;10.00;99.90
40253;DHT22;25972;51.854;4.534;2024-01-30T07:40:28;10.00;99.90
40253;DHT22;25972;51.854;4.534;2024-01-30T07:42:54;10.10;99.90
40253;DHT22;25972;51.854;4.534;2024-01-30T07:45:21;10.20;99.90
40253;DHT22;25972;51.854;4.534;2024-01-30T07:47:49;10.20;99.90
40253;DHT22;25972;51.854;4.534;2024-01-30T07:50:15;10.20;99.90
40253;DHT22;25972;51.854;4.534;2024-01-30T07:52:41;10.20;99.90
40253;DHT22;25972;51.854;4.534;2024-01-30T07:55:06;10.30;99.90
40253;DHT22;25972;51.854;4.534;2024-01-30T07:57:33;10.30;99.90
40253;DHT22;25972;51.854;4.534;2024-01-30T08:00:00;10.40;99.90
40253;DHT22;25972;51.854;4.534;2024-01-30T08:02:26;10.40;99.90
40253;DHT22;25972;51.854;4.534;2024-01-30T08:04:51;10.40;99.90
40253;DHT22;25972;51.854;4.534;2024-01-30T08:07:17;10.40;99.90
40253;DHT22;25972;51.854;4.534;2024-01-30T08:09:43;10.40;99.90
40253;DHT22;25972;51.854;4.534;2024-01-30T08:12:09;10.50;99.90
40253;DHT22;25972;51.854;4.534;2024-01-30T08:14:35;10.50;99.90
40253;DHT22;25972;51.854;4.534;2024-01-30T08:17:01;10.50;99.90
40253;DHT22;25972;51.854;4.534;2024-01-30T08:19:27;10.50;99.90
40253;DHT22;25972;51.854;4.534;2024-01-30T08:21:52;10.50;99.90
40253;DHT22;25972;51.854;4.534;2024-01-30T08:24:21;10.50;99.90
40253;DHT22;25972;51.854;4.534;2024-01-30T08:26:47;10.50;99.90
40253;DHT22;25972;51.854;4.534;2024-01-30T08:29:12;10.50;99.90
40253;DHT22;25972;51.854;4.534;2024-01-30T08:31:38;10.50;99.90
40253;DHT22;25972;51.854;4.534;2024-01-30T08:34:03;10.50;99.90
40253;DHT22;25972;51.854;4.534;2024-01-30T08:36:29;10.60;99.90
40253;DHT22;25972;51.854;4.534;2024-01-30T08:38:55;10.60;99.90
40253;DHT22;25972;51.854;4.534;2024-01-30T08:41:21;10.70;99.90
40253;DHT22;25972;51.854;4.534;2024-01-30T08:43:49;10.80;99.90
40253;DHT22;25972;51.854;4.534;2024-01-30T08:46:18;10.80;99.90
40253;DHT22;25972;51.854;4.534;2024-01-30T08:48:44;10.80;99.90
40253;DHT22;25972;51.854;4.534;2024-01-30T08:51:10;10.80;99.90
40253;DHT22;25972;51.854;4.534;2024-01-30T08:53:36;10.80;99.90
40253;DHT22;25972;51.854;4.534;2024-01-30T08:56:03;10.90;99.90
40253;DHT22;25972;51.854;4.534;2024-01-30T08:58:29;10.80;99.90
40253;DHT22;25972;51.854;4.534;2024-01-30T09:00:55;10.80;99.90
40253;DHT22;25972;51.854;4.534;2024-01-30T09:03:21;10.80;99.90
40253;DHT22;25972;51.854;4.534;2024-01-30T09:05:47;10.80;99.90
40253;DHT22;25972;51.854;4.534;2024-01-30T09:08:15;10.80;99.90
40253;DHT22;25972;51.854;4.534;2024-01-30T09:10:41;10.80;99.90
40253;DHT22;25972;51.854;4.534;2024-01-30T09:13:07;10.80;99.90
40253;DHT22;25972;51.854;4.534;2024-01-30T09:15:33;10.80;99.90
40253;DHT22;25972;51.854;4.534;2024-01-30T09:17:59;10.80;99.90
40253;DHT22;25972;51.854;4.534;2024-01-30T09:20:24;10.80;99.90
40253;DHT22;25972;51.854;4.534;2024-01-30T09:22:50;10.80;99.90
40253;DHT22;25972;51.854;4.534;2024-01-30T09:25:16;10.80;99.90
40253;DHT22;25972;51.854;4.534;2024-01-30T09:27:41;10.80;99.90
40253;DHT22;25972;51.854;4.534;2024-01-30T09:30:07;10.80;99.90
40253;DHT22;25972;51.854;4.534;2024-01-30T09:32:33;10.80;99.90
40253;DHT22;25972;51.854;4.534;2024-01-30T09:34:59;10.80;99.90
40253;DHT22;25972;51.854;4.534;2024-01-30T09:37:25;10.90;99.90
40253;DHT22;25972;51.854;4.534;2024-01-30T09:39:50;10.80;99.90
40253;DHT22;25972;51.854;4.534;2024-01-30T09:44:51;10.80;99.90
40253;DHT22;25972;51.854;4.534;2024-01-30T09:47:17;10.80;99.90
40253;DHT22;25972;51.854;4.534;2024-01-30T09:49:44;10.80;99.90
40253;DHT22;25972;51.854;4.534;2024-01-30T09:52:12;10.80;99.90
40253;DHT22;25972;51.854;4.534;2024-01-30T09:54:38;10.80;99.90
40253;DHT22;25972;51.854;4.534;2024-01-30T09:57:04;10.80;99.90
40253;DHT22;25972;51.854;4.534;2024-01-30T09:59:31;10.80;99.90
40253;DHT22;25972;51.854;4.534;2024-01-30T10:01:57;10.80;99.90
40253;DHT22;25972;51.854;4.534;2024-01-30T10:04:23;10.90;99.90
40253;DHT22;25972;51.854;4.534;2024-01-30T10:06:50;10.90;99.90
40253;DHT22;25972;51.854;4.534;2024-01-30T10:09:16;10.80;99.90
40253;DHT22;25972;51.854;4.534;2024-01-30T10:11:42;10.80;99.90
40253;DHT22;25972;51.854;4.534;2024-01-30T10:14:09;10.90;99.90
40253;DHT22;25972;51.854;4.534;2024-01-30T10:16:35;10.80;99.90
40253;DHT22;25972;51.854;4.534;2024-01-30T10:19:03;10.80;99.90
40253;DHT22;25972;51.854;4.534;2024-01-30T10:21:30;10.70;99.90
40253;DHT22;25972;51.854;4.534;2024-01-30T10:23:56;10.70;99.90
40253;DHT22;25972;51.854;4.534;2024-01-30T10:26:21;10.70;99.90
40253;DHT22;25972;51.854;4.534;2024-01-30T10:28:48;10.50;99.90
40253;DHT22;25972;51.854;4.534;2024-01-30T10:31:18;10.60;99.90
40253;DHT22;25972;51.854;4.534;2024-01-30T10:33:44;10.50;99.90
40253;DHT22;25972;51.854;4.534;2024-01-30T10:36:13;10.50;99.90
40253;DHT22;25972;51.854;4.534;2024-01-30T10:38:42;10.40;99.90
40253;DHT22;25972;51.854;4.534;2024-01-30T10:41:08;10.30;99.90
40253;DHT22;25972;51.854;4.534;2024-01-30T10:43:41;10.30;99.90
40253;DHT22;25972;51.854;4.534;2024-01-30T10:46:16;10.20;99.90
40253;DHT22;25972;51.854;4.534;2024-01-30T10:48:44;10.20;99.90
40253;DHT22;25972;51.854;4.534;2024-01-30T10:51:14;10.20;99.90
40253;DHT22;25972;51.854;4.534;2024-01-30T10:53:41;10.30;99.90
40253;DHT22;25972;51.854;4.534;2024-01-30T10:56:10;10.30;99.90
40253;DHT22;25972;51.854;4.534;2024-01-30T10:58:37;10.30;99.90
40253;DHT22;25972;51.854;4.534;2024-01-30T11:01:04;10.40;99.90
40253;DHT22;25972;51.854;4.534;2024-01-30T11:03:31;10.40;99.90
40253;DHT22;25972;51.854;4.534;2024-01-30T11:06:00;10.40;99.90
40253;DHT22;25972;51.854;4.534;2024-01-30T11:08:26;10.40;99.90
40253;DHT22;25972;51.854;4.534;2024-01-30T11:10:58;10.30;99.90
40253;DHT22;25972;51.854;4.534;2024-01-30T11:13:30;10.30;99.90
40253;DHT22;25972;51.854;4.534;2024-01-30T11:16:04;10.20;99.90
40253;DHT22;25972;51.854;4.534;2024-01-30T11:18:31;10.10;99.90
40253;DHT22;25972;51.854;4.534;2024-01-30T11:20:58;10.00;99.90
40253;DHT22;25972;51.854;4.534;2024-01-30T11:23:26;9.90;99.90
40253;DHT22;25972;51.854;4.534;2024-01-30T11:25:53;9.90;99.90
40253;DHT22;25972;51.854;4.534;2024-01-30T11:28:19;9.70;99.90
40253;DHT22;25972;51.854;4.534;2024-01-30T11:30:46;9.60;99.90
40253;DHT22;25972;51.854;4.534;2024-01-30T11:33:13;9.50;99.90
40253;DHT22;25972;51.854;4.534;2024-01-30T11:35:44;9.50;99.90
40253;DHT22;25972;51.854;4.534;2024-01-30T11:38:19;9.40;99.90
40253;DHT22;25972;51.854;4.534;2024-01-30T11:40:45;9.30;99.90
40253;DHT22;25972;51.854;4.534;2024-01-30T11:43:11;9.30;99.90
40253;DHT22;25972;51.854;4.534;2024-01-30T11:45:37;9.30;99.90
40253;DHT22;25972;51.854;4.534;2024-01-30T11:48:05;9.30;99.90
40253;DHT22;25972;51.854;4.534;2024-01-30T11:50:33;9.30;99.90
40253;DHT22;25972;51.854;4.534;2024-01-30T11:53:02;9.30;99.90
40253;DHT22;25972;51.854;4.534;2024-01-30T11:55:29;9.30;99.90
40253;DHT22;25972;51.854;4.534;2024-01-30T11:57:59;9.30;99.90
40253;DHT22;25972;51.854;4.534;2024-01-30T12:00:25;9.30;99.90
40253;DHT22;25972;51.854;4.534;2024-01-30T12:02:52;9.30;99.90
40253;DHT22;25972;51.854;4.534;2024-01-30T12:05:22;9.30;99.90
40253;DHT22;25972;51.854;4.534;2024-01-30T12:07:48;9.30;99.90
40253;DHT22;25972;51.854;4.534;2024-01-30T12:10:14;9.30;99.90
40253;DHT22;25972;51.854;4.534;2024-01-30T12:12:49;9.30;99.90
40253;DHT22;25972;51.854;4.534;2024-01-30T12:15:16;9.30;99.90
40253;DHT22;25972;51.854;4.534;2024-01-30T12:17:42;9.30;99.90
40253;DHT22;25972;51.854;4.534;2024-01-30T12:20:12;9.30;99.90
40253;DHT22;25972;51.854;4.534;2024-01-30T12:22:40;9.30;99.90
40253;DHT22;25972;51.854;4.534;2024-01-30T12:25:13;9.30;99.90
40253;DHT22;25972;51.854;4.534;2024-01-30T12:27:39;9.20;99.90
40253;DHT22;25972;51.854;4.534;2024-01-30T12:30:10;9.20;99.90
40253;DHT22;25972;51.854;4.534;2024-01-30T12:32:37;9.10;99.90
40253;DHT22;25972;51.854;4.534;2024-01-30T12:35:10;9.20;99.90
40253;DHT22;25972;51.854;4.534;2024-01-30T12:37:37;9.20;99.90
40253;DHT22;25972;51.854;4.534;2024-01-30T12:40:03;9.20;99.90
40253;DHT22;25972;51.854;4.534;2024-01-30T12:42:30;9.10;99.90
40253;DHT22;25972;51.854;4.534;2024-01-30T12:44:58;9.00;99.90
40253;DHT22;25972;51.854;4.534;2024-01-30T12:47:24;9.10;99.90
40253;DHT22;25972;51.854;4.534;2024-01-30T12:49:50;9.00;99.90
40253;DHT22;25972;51.854;4.534;2024-01-30T12:52:19;9.00;99.90
40253;DHT22;25972;51.854;4.534;2024-01-30T12:54:47;9.00;99.90
40253;DHT22;25972;51.854;4.534;2024-01-30T12:57:12;9.00;99.90
40253;DHT22;25972;51.854;4.534;2024-01-30T12:59:38;9.00;99.90
40253;DHT22;25972;51.854;4.534;2024-01-30T13:02:05;9.00;99.90
40253;DHT22;25972;51.854;4.534;2024-01-30T13:04:31;9.10;99.90
40253;DHT22;25972;51.854;4.534;2024-01-30T13:07:04;9.10;99.90
40253;DHT22;25972;51.854;4.534;2024-01-30T13:09:30;9.10;99.90
40253;DHT22;25972;51.854;4.534;2024-01-30T13:11:58;9.10;99.90
40253;DHT22;25972;51.854;4.534;2024-01-30T13:14:28;9.10;99.90
40253;DHT22;25972;51.854;4.534;2024-01-30T13:16:54;9.00;99.90
40253;DHT22;25972;51.854;4.534;2024-01-30T13:19:20;9.10;99.90
40253;DHT22;25972;51.854;4.534;2024-01-30T13:21:48;9.10;99.90
40253;DHT22;25972;51.854;4.534;2024-01-30T13:24:14;9.10;99.90
40253;DHT22;25972;51.854;4.534;2024-01-30T13:26:40;9.10;99.90
40253;DHT22;25972;51.854;4.534;2024-01-30T13:29:06;9.00;99.90
40253;DHT22;25972;51.854;4.534;2024-01-30T13:31:32;9.00;99.90
40253;DHT22;25972;51.854;4.534;2024-01-30T13:33:58;8.90;99.90
40253;DHT22;25972;51.854;4.534;2024-01-30T13:36:24;8.90;99.90
40253;DHT22;25972;51.854;4.534;2024-01-30T13:38:52;8.90;99.90
40253;DHT22;25972;51.854;4.534;2024-01-30T13:41:18;8.90;99.90
40253;DHT22;25972;51.854;4.534;2024-01-30T13:43:45;8.80;99.90
40253;DHT22;25972;51.854;4.534;2024-01-30T13:46:13;8.80;99.90
40253;DHT22;25972;51.854;4.534;2024-01-30T13:48:39;8.80;99.90
40253;DHT22;25972;51.854;4.534;2024-01-30T13:51:05;8.80;99.90
40253;DHT22;25972;51.854;4.534;2024-01-30T13:53:31;8.70;99.90
40253;DHT22;25972;51.854;4.534;2024-01-30T13:55:57;8.70;99.90
40253;DHT22;25972;51.854;4.534;2024-01-30T13:58:24;8.70;99.90
40253;DHT22;25972;51.854;4.534;2024-01-30T14:00:50;8.70;99.90
40253;DHT22;25972;51.854;4.534;2024-01-30T14:03:15;8.70;99.90
40253;DHT22;25972;51.854;4.534;2024-01-30T14:05:41;8.60;99.90
40253;DHT22;25972;51.854;4.534;2024-01-30T14:08:07;8.60;99.90
40253;DHT22;25972;51.854;4.534;2024-01-30T14:10:34;8.60;99.90
40253;DHT22;25972;51.854;4.534;2024-01-30T14:12:59;8.60;99.90
40253;DHT22;25972;51.854;4.534;2024-01-30T14:15:26;8.50;99.90
40253;DHT22;25972;51.854;4.534;2024-01-30T14:17:56;8.60;99.90
40253;DHT22;25972;51.854;4.534;2024-01-30T14:20:22;8.50;99.90
40253;DHT22;25972;51.854;4.534;2024-01-30T14:22:48;8.50;99.90
40253;DHT22;25972;51.854;4.534;2024-01-30T14:25:13;8.60;99.90
40253;DHT22;25972;51.854;4.534;2024-01-30T14:27:39;8.60;99.90
40253;DHT22;25972;51.854;4.534;2024-01-30T14:30:05;8.60;99.90
40253;DHT22;25972;51.854;4.534;2024-01-30T14:32:31;8.50;99.90
40253;DHT22;25972;51.854;4.534;2024-01-30T14:34:57;8.60;99.90
40253;DHT22;25972;51.854;4.534;2024-01-30T14:37:22;8.50;99.90
40253;DHT22;25972;51.854;4.534;2024-01-30T14:39:49;8.50;99.90
40253;DHT22;25972;51.854;4.534;2024-01-30T14:42:15;8.50;99.90
40253;DHT22;25972;51.854;4.534;2024-01-30T14:44:42;8.50;99.90
40253;DHT22;25972;51.854;4.534;2024-01-30T14:47:08;8.50;99.90
40253;DHT22;25972;51.854;4.534;2024-01-30T14:49:34;8.40;99.90
40253;DHT22;25972;51.854;4.534;2024-01-30T14:52:00;8.50;99.90
40253;DHT22;25972;51.854;4.534;2024-01-30T14:54:26;8.40;99.90
40253;DHT22;25972;51.854;4.534;2024-01-30T14:56:53;8.40;99.90
40253;DHT22;25972;51.854;4.534;2024-01-30T14:59:20;8.40;99.90
40253;DHT22;25972;51.854;4.534;2024-01-30T15:01:45;8.40;99.90
40253;DHT22;25972;51.854;4.534;2024-01-30T15:04:12;8.40;99.90
40253;DHT22;25972;51.854;4.534;2024-01-30T15:06:40;8.40;99.90
40253;DHT22;25972;51.854;4.534;2024-01-30T15:09:11;8.30;99.90
40253;DHT22;25972;51.854;4.534;2024-01-30T15:11:40;8.30;99.90
40253;DHT22;25972;51.854;4.534;2024-01-30T15:14:06;8.30;99.90
40253;DHT22;25972;51.854;4.534;2024-01-30T15:16:32;8.30;99.90
40253;DHT22;25972;51.854;4.534;2024-01-30T15:18:58;8.20;99.90
40253;DHT22;25972;51.854;4.534;2024-01-30T15:21:23;8.20;99.90
40253;DHT22;25972;51.854;4.534;2024-01-30T15:23:49;8.30;99.90
40253;DHT22;25972;51.854;4.534;2024-01-30T15:26:15;8.20;99.90
40253;DHT22;25972;51.854;4.534;2024-01-30T15:28:41;8.20;99.90
40253;DHT22;25972;51.854;4.534;2024-01-30T15:31:07;8.20;99.90
40253;DHT22;25972;51.854;4.534;2024-01-30T15:33:33;8.10;99.90
40253;DHT22;25972;51.854;4.534;2024-01-30T15:35:59;8.20;99.90
40253;DHT22;25972;51.854;4.534;2024-01-30T15:38:26;8.10;99.90
40253;DHT22;25972;51.854;4.534;2024-01-30T15:40:53;8.10;99.90